Terminal Aerodrome Forecast
Issued by NWS La Crosse, WI

Home | Current Version | Previous Version | Text Only | Print | Product List | Glossary On
Versions: 1 2 3 4 5 6 7 8 9 10 11 12 13 14 15 16 17 18 19 20 21 22 23 24 25 26 27 28
000
FTUS43 KARX 280520
TAFRST
TAF
KRST 280520Z 2806/2906 32005KT P6SM BKN015
     FM280800 34006KT 4SM BR OVC010
     FM281000 35006KT 2SM BR OVC007
     FM281500 35006KT 5SM BR VCSH OVC012
     FM281800 01008KT P6SM VCTS BKN015CB
     FM290100 03006KT 5SM BR BKN025=

USA.gov is the U.S. government's official web portal to all federal, state and local government web resources and services.